sensor_id;sensor_type;location;lat;lon;timestamp;P1;durP1;ratioP1;P2;durP2;ratioP2
77055;SDS011;67471;44.918;8.614;2024-03-06T00:02:43;3.65;;;1.35;;
77055;SDS011;67471;44.918;8.614;2024-03-06T00:05:47;2.65;;;1.13;;
77055;SDS011;67471;44.918;8.614;2024-03-06T00:08:51;3.47;;;1.20;;
77055;SDS011;67471;44.918;8.614;2024-03-06T00:11:55;3.03;;;0.98;;
77055;SDS011;67471;44.918;8.614;2024-03-06T00:14:59;1.65;;;0.77;;
77055;SDS011;67471;44.918;8.614;2024-03-06T00:18:04;1.88;;;0.90;;
77055;SDS011;67471;44.918;8.614;2024-03-06T00:21:08;2.75;;;0.90;;
77055;SDS011;67471;44.918;8.614;2024-03-06T00:24:13;4.13;;;0.73;;
77055;SDS011;67471;44.918;8.614;2024-03-06T00:27:17;2.65;;;0.70;;
77055;SDS011;67471;44.918;8.614;2024-03-06T00:30:20;1.63;;;0.80;;
77055;SDS011;67471;44.918;8.614;2024-03-06T00:33:25;2.58;;;0.90;;
77055;SDS011;67471;44.918;8.614;2024-03-06T00:36:29;1.70;;;0.88;;
77055;SDS011;67471;44.918;8.614;2024-03-06T00:39:33;2.42;;;1.45;;
77055;SDS011;67471;44.918;8.614;2024-03-06T00:42:37;2.28;;;0.98;;
77055;SDS011;67471;44.918;8.614;2024-03-06T00:45:43;2.33;;;1.00;;
77055;SDS011;67471;44.918;8.614;2024-03-06T00:48:47;2.80;;;1.00;;
77055;SDS011;67471;44.918;8.614;2024-03-06T00:51:51;3.85;;;1.10;;
77055;SDS011;67471;44.918;8.614;2024-03-06T00:54:55;1.88;;;0.90;;
77055;SDS011;67471;44.918;8.614;2024-03-06T00:57:59;1.75;;;0.90;;
77055;SDS011;67471;44.918;8.614;2024-03-06T01:01:03;2.78;;;1.00;;
77055;SDS011;67471;44.918;8.614;2024-03-06T01:04:07;2.17;;;1.00;;
77055;SDS011;67471;44.918;8.614;2024-03-06T01:07:11;1.40;;;0.80;;
77055;SDS011;67471;44.918;8.614;2024-03-06T01:10:15;2.35;;;0.85;;
77055;SDS011;67471;44.918;8.614;2024-03-06T01:13:19;1.58;;;0.80;;
77055;SDS011;67471;44.918;8.614;2024-03-06T01:16:23;1.02;;;0.50;;
77055;SDS011;67471;44.918;8.614;2024-03-06T01:19:27;2.80;;;0.70;;
77055;SDS011;67471;44.918;8.614;2024-03-06T01:22:30;1.83;;;0.75;;
77055;SDS011;67471;44.918;8.614;2024-03-06T01:25:34;1.55;;;0.80;;
77055;SDS011;67471;44.918;8.614;2024-03-06T01:28:38;1.33;;;0.70;;
77055;SDS011;67471;44.918;8.614;2024-03-06T01:31:42;3.33;;;0.68;;
77055;SDS011;67471;44.918;8.614;2024-03-06T01:34:46;1.55;;;0.70;;
77055;SDS011;67471;44.918;8.614;2024-03-06T01:37:49;1.05;;;0.57;;
77055;SDS011;67471;44.918;8.614;2024-03-06T01:40:53;1.25;;;0.55;;
77055;SDS011;67471;44.918;8.614;2024-03-06T01:43:57;2.80;;;0.98;;
77055;SDS011;67471;44.918;8.614;2024-03-06T01:47:01;3.72;;;0.90;;
77055;SDS011;67471;44.918;8.614;2024-03-06T01:50:05;5.28;;;2.85;;
77055;SDS011;67471;44.918;8.614;2024-03-06T01:53:13;8.45;;;3.53;;
77055;SDS011;67471;44.918;8.614;2024-03-06T01:56:19;5.38;;;3.28;;
77055;SDS011;67471;44.918;8.614;2024-03-06T01:59:23;4.25;;;2.70;;
77055;SDS011;67471;44.918;8.614;2024-03-06T02:02:28;3.78;;;1.38;;
77055;SDS011;67471;44.918;8.614;2024-03-06T02:05:32;4.32;;;2.05;;
77055;SDS011;67471;44.918;8.614;2024-03-06T02:08:36;2.50;;;1.30;;
77055;SDS011;67471;44.918;8.614;2024-03-06T02:11:40;2.42;;;1.20;;
77055;SDS011;67471;44.918;8.614;2024-03-06T02:14:45;2.35;;;0.98;;
77055;SDS011;67471;44.918;8.614;2024-03-06T02:17:49;2.65;;;1.40;;
77055;SDS011;67471;44.918;8.614;2024-03-06T02:20:52;1.70;;;0.90;;
77055;SDS011;67471;44.918;8.614;2024-03-06T02:23:56;1.85;;;0.82;;
77055;SDS011;67471;44.918;8.614;2024-03-06T02:27:00;2.45;;;1.30;;
77055;SDS011;67471;44.918;8.614;2024-03-06T02:30:22;2.72;;;1.20;;
77055;SDS011;67471;44.918;8.614;2024-03-06T02:33:26;2.70;;;0.93;;
77055;SDS011;67471;44.918;8.614;2024-03-06T02:36:30;2.03;;;0.90;;
77055;SDS011;67471;44.918;8.614;2024-03-06T02:39:34;1.67;;;0.65;;
77055;SDS011;67471;44.918;8.614;2024-03-06T02:42:37;2.10;;;1.00;;
77055;SDS011;67471;44.918;8.614;2024-03-06T02:45:44;2.08;;;0.90;;
77055;SDS011;67471;44.918;8.614;2024-03-06T02:48:47;1.52;;;0.82;;
77055;SDS011;67471;44.918;8.614;2024-03-06T02:51:51;2.20;;;1.10;;
77055;SDS011;67471;44.918;8.614;2024-03-06T02:54:55;2.60;;;1.40;;
77055;SDS011;67471;44.918;8.614;2024-03-06T02:58:02;3.42;;;2.38;;
77055;SDS011;67471;44.918;8.614;2024-03-06T03:01:06;4.00;;;2.65;;
77055;SDS011;67471;44.918;8.614;2024-03-06T03:04:12;2.28;;;1.10;;
77055;SDS011;67471;44.918;8.614;2024-03-06T03:07:16;2.65;;;1.10;;
77055;SDS011;67471;44.918;8.614;2024-03-06T03:10:20;3.45;;;1.20;;
77055;SDS011;67471;44.918;8.614;2024-03-06T03:13:24;3.03;;;1.10;;
77055;SDS011;67471;44.918;8.614;2024-03-06T03:16:27;1.30;;;0.63;;
77055;SDS011;67471;44.918;8.614;2024-03-06T03:19:31;1.55;;;0.80;;
77055;SDS011;67471;44.918;8.614;2024-03-06T03:22:39;2.42;;;0.98;;
77055;SDS011;67471;44.918;8.614;2024-03-06T03:25:43;2.20;;;1.25;;
77055;SDS011;67471;44.918;8.614;2024-03-06T03:28:47;3.92;;;1.20;;
77055;SDS011;67471;44.918;8.614;2024-03-06T03:31:51;4.03;;;1.60;;
77055;SDS011;67471;44.918;8.614;2024-03-06T03:34:54;2.05;;;1.08;;
77055;SDS011;67471;44.918;8.614;2024-03-06T03:37:58;2.00;;;0.95;;
77055;SDS011;67471;44.918;8.614;2024-03-06T03:41:02;2.00;;;0.90;;
77055;SDS011;67471;44.918;8.614;2024-03-06T03:44:07;2.35;;;1.05;;
77055;SDS011;67471;44.918;8.614;2024-03-06T03:47:10;1.77;;;0.85;;
77055;SDS011;67471;44.918;8.614;2024-03-06T03:50:16;1.48;;;0.80;;
77055;SDS011;67471;44.918;8.614;2024-03-06T03:53:19;2.03;;;0.95;;
77055;SDS011;67471;44.918;8.614;2024-03-06T03:56:23;2.05;;;0.98;;
77055;SDS011;67471;44.918;8.614;2024-03-06T03:59:27;1.65;;;0.80;;
77055;SDS011;67471;44.918;8.614;2024-03-06T04:02:31;2.20;;;1.20;;
77055;SDS011;67471;44.918;8.614;2024-03-06T04:05:35;3.17;;;0.90;;
77055;SDS011;67471;44.918;8.614;2024-03-06T04:08:39;1.02;;;0.47;;
77055;SDS011;67471;44.918;8.614;2024-03-06T04:11:43;1.55;;;0.70;;
77055;SDS011;67471;44.918;8.614;2024-03-06T04:14:46;1.90;;;0.50;;
77055;SDS011;67471;44.918;8.614;2024-03-06T04:17:50;4.07;;;0.73;;
77055;SDS011;67471;44.918;8.614;2024-03-06T04:20:55;1.58;;;0.68;;
77055;SDS011;67471;44.918;8.614;2024-03-06T04:23:59;0.68;;;0.40;;
77055;SDS011;67471;44.918;8.614;2024-03-06T04:27:03;1.08;;;0.50;;
77055;SDS011;67471;44.918;8.614;2024-03-06T04:30:07;1.77;;;1.02;;
77055;SDS011;67471;44.918;8.614;2024-03-06T04:33:11;0.80;;;0.40;;
77055;SDS011;67471;44.918;8.614;2024-03-06T04:36:17;0.65;;;0.35;;
77055;SDS011;67471;44.918;8.614;2024-03-06T04:39:20;0.98;;;0.50;;
77055;SDS011;67471;44.918;8.614;2024-03-06T04:42:24;2.15;;;0.60;;
77055;SDS011;67471;44.918;8.614;2024-03-06T04:45:28;1.48;;;0.70;;
77055;SDS011;67471;44.918;8.614;2024-03-06T04:48:32;1.45;;;0.70;;
77055;SDS011;67471;44.918;8.614;2024-03-06T04:51:36;1.58;;;0.70;;
77055;SDS011;67471;44.918;8.614;2024-03-06T04:54:40;1.48;;;0.65;;
77055;SDS011;67471;44.918;8.614;2024-03-06T04:57:43;1.40;;;0.60;;
77055;SDS011;67471;44.918;8.614;2024-03-06T05:00:47;1.65;;;0.63;;
77055;SDS011;67471;44.918;8.614;2024-03-06T05:03:51;1.15;;;0.50;;
77055;SDS011;67471;44.918;8.614;2024-03-06T05:06:55;1.98;;;0.60;;
77055;SDS011;67471;44.918;8.614;2024-03-06T05:09:59;0.95;;;0.60;;
77055;SDS011;67471;44.918;8.614;2024-03-06T05:13:03;0.82;;;0.43;;
77055;SDS011;67471;44.918;8.614;2024-03-06T05:16:08;2.08;;;1.10;;
77055;SDS011;67471;44.918;8.614;2024-03-06T05:19:12;1.75;;;0.73;;
77055;SDS011;67471;44.918;8.614;2024-03-06T05:22:16;1.30;;;0.68;;
77055;SDS011;67471;44.918;8.614;2024-03-06T05:25:20;1.63;;;0.82;;
77055;SDS011;67471;44.918;8.614;2024-03-06T05:28:24;2.50;;;1.25;;
77055;SDS011;67471;44.918;8.614;2024-03-06T05:31:27;1.60;;;0.80;;
77055;SDS011;67471;44.918;8.614;2024-03-06T05:34:31;1.50;;;0.90;;
77055;SDS011;67471;44.918;8.614;2024-03-06T05:37:35;3.28;;;1.13;;
77055;SDS011;67471;44.918;8.614;2024-03-06T05:40:39;2.10;;;1.40;;
77055;SDS011;67471;44.918;8.614;2024-03-06T05:43:44;2.80;;;1.48;;
77055;SDS011;67471;44.918;8.614;2024-03-06T05:46:48;5.50;;;4.07;;
77055;SDS011;67471;44.918;8.614;2024-03-06T05:49:52;3.53;;;2.20;;
77055;SDS011;67471;44.918;8.614;2024-03-06T05:52:57;5.18;;;2.63;;
77055;SDS011;67471;44.918;8.614;2024-03-06T05:56:01;4.93;;;3.05;;
77055;SDS011;67471;44.918;8.614;2024-03-06T05:59:05;3.40;;;2.10;;
77055;SDS011;67471;44.918;8.614;2024-03-06T06:02:11;3.28;;;2.38;;
77055;SDS011;67471;44.918;8.614;2024-03-06T06:05:15;4.55;;;3.47;;
77055;SDS011;67471;44.918;8.614;2024-03-06T06:08:21;4.95;;;1.95;;
77055;SDS011;67471;44.918;8.614;2024-03-06T06:11:25;3.88;;;2.00;;
77055;SDS011;67471;44.918;8.614;2024-03-06T06:14:29;6.35;;;3.05;;
77055;SDS011;67471;44.918;8.614;2024-03-06T06:17:33;4.07;;;2.35;;
77055;SDS011;67471;44.918;8.614;2024-03-06T06:20:37;4.05;;;2.30;;
77055;SDS011;67471;44.918;8.614;2024-03-06T06:23:42;3.85;;;2.28;;
77055;SDS011;67471;44.918;8.614;2024-03-06T06:26:46;3.00;;;1.70;;
77055;SDS011;67471;44.918;8.614;2024-03-06T06:29:50;4.45;;;1.95;;
77055;SDS011;67471;44.918;8.614;2024-03-06T06:32:54;2.65;;;1.30;;
77055;SDS011;67471;44.918;8.614;2024-03-06T06:35:57;3.15;;;1.35;;
77055;SDS011;67471;44.918;8.614;2024-03-06T06:39:01;3.35;;;1.25;;
77055;SDS011;67471;44.918;8.614;2024-03-06T06:42:06;4.32;;;1.33;;
77055;SDS011;67471;44.918;8.614;2024-03-06T06:45:10;2.30;;;1.00;;
77055;SDS011;67471;44.918;8.614;2024-03-06T06:48:13;1.98;;;0.77;;
77055;SDS011;67471;44.918;8.614;2024-03-06T06:51:18;2.00;;;1.13;;
77055;SDS011;67471;44.918;8.614;2024-03-06T06:54:22;2.42;;;1.00;;
77055;SDS011;67471;44.918;8.614;2024-03-06T06:57:26;2.42;;;1.10;;
77055;SDS011;67471;44.918;8.614;2024-03-06T07:00:29;1.95;;;0.90;;
77055;SDS011;67471;44.918;8.614;2024-03-06T07:03:33;4.97;;;1.33;;
77055;SDS011;67471;44.918;8.614;2024-03-06T07:06:37;2.38;;;0.95;;
77055;SDS011;67471;44.918;8.614;2024-03-06T07:09:41;1.60;;;0.70;;
77055;SDS011;67471;44.918;8.614;2024-03-06T07:12:45;2.83;;;0.82;;
77055;SDS011;67471;44.918;8.614;2024-03-06T07:15:48;3.55;;;1.00;;
77055;SDS011;67471;44.918;8.614;2024-03-06T07:18:52;2.80;;;0.88;;
77055;SDS011;67471;44.918;8.614;2024-03-06T07:21:56;3.47;;;1.40;;
77055;SDS011;67471;44.918;8.614;2024-03-06T07:25:00;1.75;;;0.60;;
77055;SDS011;67471;44.918;8.614;2024-03-06T07:28:08;1.97;;;0.70;;
77055;SDS011;67471;44.918;8.614;2024-03-06T07:31:12;2.33;;;1.00;;
77055;SDS011;67471;44.918;8.614;2024-03-06T07:34:15;2.65;;;1.10;;
77055;SDS011;67471;44.918;8.614;2024-03-06T07:37:19;3.78;;;1.15;;
77055;SDS011;67471;44.918;8.614;2024-03-06T07:40:24;2.72;;;1.15;;
77055;SDS011;67471;44.918;8.614;2024-03-06T07:43:28;4.85;;;2.10;;
77055;SDS011;67471;44.918;8.614;2024-03-06T07:46:32;6.97;;;2.72;;
77055;SDS011;67471;44.918;8.614;2024-03-06T07:49:36;5.45;;;2.55;;
77055;SDS011;67471;44.918;8.614;2024-03-06T07:52:41;4.20;;;2.10;;
77055;SDS011;67471;44.918;8.614;2024-03-06T07:55:44;5.18;;;1.38;;
77055;SDS011;67471;44.918;8.614;2024-03-06T07:58:48;4.63;;;1.50;;
77055;SDS011;67471;44.918;8.614;2024-03-06T08:01:52;2.85;;;1.60;;
77055;SDS011;67471;44.918;8.614;2024-03-06T08:04:55;4.75;;;1.40;;
77055;SDS011;67471;44.918;8.614;2024-03-06T08:07:59;2.67;;;1.40;;
77055;SDS011;67471;44.918;8.614;2024-03-06T08:11:03;2.70;;;1.60;;
77055;SDS011;67471;44.918;8.614;2024-03-06T08:14:07;5.43;;;1.60;;
77055;SDS011;67471;44.918;8.614;2024-03-06T08:17:11;3.53;;;1.65;;
77055;SDS011;67471;44.918;8.614;2024-03-06T08:20:14;6.80;;;2.78;;
77055;SDS011;67471;44.918;8.614;2024-03-06T08:23:18;2.83;;;1.20;;
77055;SDS011;67471;44.918;8.614;2024-03-06T08:26:22;3.95;;;1.80;;
77055;SDS011;67471;44.918;8.614;2024-03-06T08:29:26;2.75;;;1.30;;
77055;SDS011;67471;44.918;8.614;2024-03-06T08:32:31;2.10;;;1.20;;
77055;SDS011;67471;44.918;8.614;2024-03-06T08:35:39;2.30;;;1.20;;
77055;SDS011;67471;44.918;8.614;2024-03-06T08:38:42;2.53;;;1.00;;
77055;SDS011;67471;44.918;8.614;2024-03-06T08:41:46;2.50;;;1.05;;
77055;SDS011;67471;44.918;8.614;2024-03-06T08:44:50;2.25;;;1.00;;
77055;SDS011;67471;44.918;8.614;2024-03-06T08:47:54;2.78;;;1.00;;
77055;SDS011;67471;44.918;8.614;2024-03-06T08:50:58;3.97;;;1.38;;
77055;SDS011;67471;44.918;8.614;2024-03-06T08:54:02;3.40;;;1.20;;
77055;SDS011;67471;44.918;8.614;2024-03-06T08:57:06;3.63;;;1.35;;
77055;SDS011;67471;44.918;8.614;2024-03-06T09:00:10;2.47;;;0.90;;
77055;SDS011;67471;44.918;8.614;2024-03-06T09:03:14;2.30;;;1.17;;
77055;SDS011;67471;44.918;8.614;2024-03-06T09:06:18;5.60;;;1.55;;
77055;SDS011;67471;44.918;8.614;2024-03-06T09:09:22;2.20;;;1.08;;
77055;SDS011;67471;44.918;8.614;2024-03-06T09:12:26;3.35;;;1.55;;
77055;SDS011;67471;44.918;8.614;2024-03-06T09:15:30;6.53;;;1.50;;
77055;SDS011;67471;44.918;8.614;2024-03-06T09:18:33;2.55;;;1.40;;
77055;SDS011;67471;44.918;8.614;2024-03-06T09:21:37;5.78;;;1.60;;
77055;SDS011;67471;44.918;8.614;2024-03-06T09:24:41;4.07;;;1.65;;
77055;SDS011;67471;44.918;8.614;2024-03-06T09:27:45;4.93;;;2.00;;
77055;SDS011;67471;44.918;8.614;2024-03-06T09:30:48;11.75;;;8.55;;
77055;SDS011;67471;44.918;8.614;2024-03-06T09:33:52;4.53;;;2.90;;
77055;SDS011;67471;44.918;8.614;2024-03-06T09:36:56;4.88;;;2.70;;
77055;SDS011;67471;44.918;8.614;2024-03-06T09:40:00;3.35;;;2.25;;
77055;SDS011;67471;44.918;8.614;2024-03-06T09:43:04;4.07;;;2.35;;
77055;SDS011;67471;44.918;8.614;2024-03-06T09:46:10;3.85;;;2.03;;
77055;SDS011;67471;44.918;8.614;2024-03-06T09:49:14;3.53;;;1.88;;
77055;SDS011;67471;44.918;8.614;2024-03-06T09:52:19;3.83;;;1.63;;
77055;SDS011;67471;44.918;8.614;2024-03-06T09:55:23;5.35;;;2.10;;
77055;SDS011;67471;44.918;8.614;2024-03-06T09:58:29;4.57;;;3.05;;
77055;SDS011;67471;44.918;8.614;2024-03-06T10:01:33;4.45;;;2.40;;
77055;SDS011;67471;44.918;8.614;2024-03-06T10:04:38;3.92;;;2.40;;
77055;SDS011;67471;44.918;8.614;2024-03-06T10:07:42;4.50;;;2.60;;
77055;SDS011;67471;44.918;8.614;2024-03-06T10:10:47;4.78;;;2.40;;
77055;SDS011;67471;44.918;8.614;2024-03-06T10:13:52;4.88;;;2.83;;
77055;SDS011;67471;44.918;8.614;2024-03-06T10:16:57;5.00;;;2.70;;
77055;SDS011;67471;44.918;8.614;2024-03-06T10:20:02;4.78;;;2.97;;
77055;SDS011;67471;44.918;8.614;2024-03-06T10:23:23;4.60;;;3.17;;
77055;SDS011;67471;44.918;8.614;2024-03-06T10:26:29;7.57;;;4.30;;
77055;SDS011;67471;44.918;8.614;2024-03-06T10:29:34;9.52;;;5.32;;
77055;SDS011;67471;44.918;8.614;2024-03-06T10:32:38;6.65;;;3.35;;
77055;SDS011;67471;44.918;8.614;2024-03-06T10:35:43;6.07;;;3.20;;
77055;SDS011;67471;44.918;8.614;2024-03-06T10:38:48;4.13;;;2.88;;
77055;SDS011;67471;44.918;8.614;2024-03-06T10:41:57;4.25;;;2.83;;
77055;SDS011;67471;44.918;8.614;2024-03-06T10:45:01;6.55;;;3.15;;
77055;SDS011;67471;44.918;8.614;2024-03-06T10:48:06;3.92;;;2.58;;
77055;SDS011;67471;44.918;8.614;2024-03-06T10:51:10;6.55;;;4.07;;
77055;SDS011;67471;44.918;8.614;2024-03-06T10:54:17;6.28;;;3.70;;
77055;SDS011;67471;44.918;8.614;2024-03-06T10:57:22;5.93;;;4.00;;
77055;SDS011;67471;44.918;8.614;2024-03-06T11:00:27;6.72;;;3.33;;
77055;SDS011;67471;44.918;8.614;2024-03-06T11:03:32;4.47;;;3.20;;
77055;SDS011;67471;44.918;8.614;2024-03-06T11:06:39;5.38;;;3.22;;
77055;SDS011;67471;44.918;8.614;2024-03-06T11:09:42;4.43;;;3.13;;
77055;SDS011;67471;44.918;8.614;2024-03-06T11:12:46;8.23;;;3.47;;
77055;SDS011;67471;44.918;8.614;2024-03-06T11:15:52;5.22;;;3.28;;
77055;SDS011;67471;44.918;8.614;2024-03-06T11:19:06;5.57;;;3.70;;
77055;SDS011;67471;44.918;8.614;2024-03-06T11:22:11;4.78;;;3.53;;
77055;SDS011;67471;44.918;8.614;2024-03-06T11:28:47;6.72;;;3.90;;
77055;SDS011;67471;44.918;8.614;2024-03-06T11:32:06;5.57;;;3.05;;
77055;SDS011;67471;44.918;8.614;2024-03-06T11:35:11;4.20;;;3.03;;
77055;SDS011;67471;44.918;8.614;2024-03-06T11:38:19;4.32;;;3.30;;
77055;SDS011;67471;44.918;8.614;2024-03-06T11:41:25;4.82;;;3.75;;
77055;SDS011;67471;44.918;8.614;2024-03-06T11:44:33;5.93;;;4.10;;
77055;SDS011;67471;44.918;8.614;2024-03-06T11:47:55;4.50;;;3.70;;
77055;SDS011;67471;44.918;8.614;2024-03-06T11:50:59;4.20;;;3.03;;
77055;SDS011;67471;44.918;8.614;2024-03-06T11:54:05;5.00;;;3.33;;
77055;SDS011;67471;44.918;8.614;2024-03-06T11:57:10;5.00;;;2.95;;
77055;SDS011;67471;44.918;8.614;2024-03-06T12:00:15;5.78;;;2.97;;
77055;SDS011;67471;44.918;8.614;2024-03-06T12:03:20;4.30;;;2.97;;
77055;SDS011;67471;44.918;8.614;2024-03-06T12:06:24;4.15;;;2.85;;
77055;SDS011;67471;44.918;8.614;2024-03-06T12:09:31;5.65;;;3.88;;
77055;SDS011;67471;44.918;8.614;2024-03-06T12:12:36;4.60;;;2.78;;
77055;SDS011;67471;44.918;8.614;2024-03-06T12:15:43;5.40;;;2.97;;
77055;SDS011;67471;44.918;8.614;2024-03-06T12:18:54;8.00;;;3.67;;
77055;SDS011;67471;44.918;8.614;2024-03-06T12:22:01;6.05;;;3.15;;
77055;SDS011;67471;44.918;8.614;2024-03-06T12:25:06;6.15;;;3.60;;
77055;SDS011;67471;44.918;8.614;2024-03-06T12:28:10;6.50;;;3.28;;
77055;SDS011;67471;44.918;8.614;2024-03-06T12:31:13;6.22;;;3.10;;
77055;SDS011;67471;44.918;8.614;2024-03-06T12:34:17;4.40;;;3.22;;
77055;SDS011;67471;44.918;8.614;2024-03-06T12:37:21;5.95;;;3.80;;
77055;SDS011;67471;44.918;8.614;2024-03-06T12:40:35;5.78;;;3.60;;
77055;SDS011;67471;44.918;8.614;2024-03-06T12:43:39;5.15;;;3.42;;
77055;SDS011;67471;44.918;8.614;2024-03-06T12:46:43;5.95;;;3.47;;
77055;SDS011;67471;44.918;8.614;2024-03-06T12:49:47;4.63;;;3.30;;
77055;SDS011;67471;44.918;8.614;2024-03-06T12:52:50;5.47;;;3.63;;
77055;SDS011;67471;44.918;8.614;2024-03-06T12:55:55;5.03;;;3.03;;
77055;SDS011;67471;44.918;8.614;2024-03-06T12:58:59;7.20;;;3.30;;
77055;SDS011;67471;44.918;8.614;2024-03-06T13:02:03;4.10;;;3.03;;
77055;SDS011;67471;44.918;8.614;2024-03-06T13:05:07;5.63;;;2.83;;
77055;SDS011;67471;44.918;8.614;2024-03-06T13:08:11;3.95;;;2.90;;
77055;SDS011;67471;44.918;8.614;2024-03-06T13:11:17;3.67;;;2.58;;
77055;SDS011;67471;44.918;8.614;2024-03-06T13:14:22;4.93;;;3.10;;
77055;SDS011;67471;44.918;8.614;2024-03-06T13:17:25;5.32;;;2.83;;
77055;SDS011;67471;44.918;8.614;2024-03-06T13:20:30;4.05;;;2.67;;
77055;SDS011;67471;44.918;8.614;2024-03-06T13:23:33;3.88;;;2.42;;
77055;SDS011;67471;44.918;8.614;2024-03-06T13:26:38;3.38;;;2.30;;
77055;SDS011;67471;44.918;8.614;2024-03-06T13:29:43;3.83;;;2.80;;
77055;SDS011;67471;44.918;8.614;2024-03-06T13:32:47;5.03;;;2.92;;
77055;SDS011;67471;44.918;8.614;2024-03-06T13:35:50;3.42;;;2.60;;
77055;SDS011;67471;44.918;8.614;2024-03-06T13:38:54;5.70;;;2.78;;
77055;SDS011;67471;44.918;8.614;2024-03-06T13:41:58;3.83;;;2.67;;
77055;SDS011;67471;44.918;8.614;2024-03-06T13:45:03;4.43;;;2.67;;
77055;SDS011;67471;44.918;8.614;2024-03-06T13:48:13;4.88;;;2.60;;
77055;SDS011;67471;44.918;8.614;2024-03-06T13:51:18;3.83;;;2.38;;
77055;SDS011;67471;44.918;8.614;2024-03-06T13:54:23;3.78;;;2.60;;
77055;SDS011;67471;44.918;8.614;2024-03-06T13:57:26;4.38;;;3.00;;
77055;SDS011;67471;44.918;8.614;2024-03-06T14:00:30;3.65;;;2.78;;
77055;SDS011;67471;44.918;8.614;2024-03-06T14:03:34;4.50;;;2.65;;
77055;SDS011;67471;44.918;8.614;2024-03-06T14:06:41;4.88;;;3.35;;
77055;SDS011;67471;44.918;8.614;2024-03-06T14:09:45;5.38;;;3.63;;
77055;SDS011;67471;44.918;8.614;2024-03-06T14:12:48;6.53;;;3.60;;
77055;SDS011;67471;44.918;8.614;2024-03-06T14:15:56;6.45;;;3.53;;
77055;SDS011;67471;44.918;8.614;2024-03-06T14:19:03;6.07;;;3.75;;
77055;SDS011;67471;44.918;8.614;2024-03-06T14:22:08;5.90;;;3.40;;
77055;SDS011;67471;44.918;8.614;2024-03-06T14:25:11;4.78;;;3.58;;
77055;SDS011;67471;44.918;8.614;2024-03-06T14:28:15;4.07;;;3.55;;
77055;SDS011;67471;44.918;8.614;2024-03-06T14:31:19;5.47;;;3.72;;
77055;SDS011;67471;44.918;8.614;2024-03-06T14:34:23;9.73;;;5.00;;
77055;SDS011;67471;44.918;8.614;2024-03-06T14:37:27;7.10;;;4.10;;
77055;SDS011;67471;44.918;8.614;2024-03-06T14:40:32;9.15;;;4.30;;
77055;SDS011;67471;44.918;8.614;2024-03-06T14:43:37;5.55;;;3.80;;
77055;SDS011;67471;44.918;8.614;2024-03-06T14:46:42;7.45;;;3.35;;
77055;SDS011;67471;44.918;8.614;2024-03-06T14:49:46;7.03;;;3.67;;
77055;SDS011;67471;44.918;8.614;2024-03-06T14:52:50;5.93;;;3.72;;
77055;SDS011;67471;44.918;8.614;2024-03-06T14:55:53;6.10;;;3.90;;
77055;SDS011;67471;44.918;8.614;2024-03-06T14:58:58;5.90;;;3.63;;
77055;SDS011;67471;44.918;8.614;2024-03-06T15:02:02;9.07;;;4.03;;
77055;SDS011;67471;44.918;8.614;2024-03-06T15:05:07;7.20;;;4.22;;
77055;SDS011;67471;44.918;8.614;2024-03-06T15:08:11;11.30;;;5.82;;
77055;SDS011;67471;44.918;8.614;2024-03-06T15:11:15;4.60;;;3.50;;
77055;SDS011;67471;44.918;8.614;2024-03-06T15:14:20;5.28;;;2.85;;
77055;SDS011;67471;44.918;8.614;2024-03-06T15:17:24;9.55;;;4.30;;
77055;SDS011;67471;44.918;8.614;2024-03-06T15:20:31;5.97;;;3.50;;
77055;SDS011;67471;44.918;8.614;2024-03-06T15:23:36;7.45;;;4.78;;
77055;SDS011;67471;44.918;8.614;2024-03-06T15:26:40;8.93;;;5.07;;
77055;SDS011;67471;44.918;8.614;2024-03-06T15:29:44;8.95;;;5.60;;
77055;SDS011;67471;44.918;8.614;2024-03-06T15:32:48;8.63;;;4.47;;
77055;SDS011;67471;44.918;8.614;2024-03-06T15:35:52;8.85;;;4.80;;
77055;SDS011;67471;44.918;8.614;2024-03-06T15:38:56;9.18;;;4.20;;
77055;SDS011;67471;44.918;8.614;2024-03-06T15:42:02;6.63;;;4.65;;
77055;SDS011;67471;44.918;8.614;2024-03-06T15:45:06;5.57;;;3.10;;
77055;SDS011;67471;44.918;8.614;2024-03-06T15:48:09;4.03;;;2.90;;
77055;SDS011;67471;44.918;8.614;2024-03-06T15:51:17;6.07;;;3.95;;
77055;SDS011;67471;44.918;8.614;2024-03-06T15:54:21;4.20;;;2.85;;
77055;SDS011;67471;44.918;8.614;2024-03-06T15:57:25;4.07;;;2.67;;
77055;SDS011;67471;44.918;8.614;2024-03-06T16:00:28;7.07;;;3.00;;
77055;SDS011;67471;44.918;8.614;2024-03-06T16:03:32;4.47;;;3.10;;
77055;SDS011;67471;44.918;8.614;2024-03-06T16:06:36;6.47;;;3.70;;
77055;SDS011;67471;44.918;8.614;2024-03-06T16:09:40;7.75;;;4.28;;
77055;SDS011;67471;44.918;8.614;2024-03-06T16:12:44;7.03;;;4.55;;
77055;SDS011;67471;44.918;8.614;2024-03-06T16:15:48;8.15;;;4.65;;
77055;SDS011;67471;44.918;8.614;2024-03-06T16:18:53;7.32;;;4.35;;
77055;SDS011;67471;44.918;8.614;2024-03-06T16:21:57;8.65;;;4.50;;
77055;SDS011;67471;44.918;8.614;2024-03-06T16:25:00;6.07;;;4.30;;
77055;SDS011;67471;44.918;8.614;2024-03-06T16:28:05;7.10;;;3.67;;
77055;SDS011;67471;44.918;8.614;2024-03-06T16:31:09;8.05;;;4.38;;
77055;SDS011;67471;44.918;8.614;2024-03-06T16:34:13;5.10;;;3.80;;
77055;SDS011;67471;44.918;8.614;2024-03-06T16:37:18;5.13;;;3.63;;
77055;SDS011;67471;44.918;8.614;2024-03-06T16:40:22;6.85;;;3.83;;
77055;SDS011;67471;44.918;8.614;2024-03-06T16:43:26;4.95;;;3.30;;
77055;SDS011;67471;44.918;8.614;2024-03-06T16:46:30;6.05;;;3.05;;
77055;SDS011;67471;44.918;8.614;2024-03-06T16:49:34;6.13;;;2.30;;
77055;SDS011;67471;44.918;8.614;2024-03-06T16:52:37;3.97;;;2.15;;
77055;SDS011;67471;44.918;8.614;2024-03-06T16:55:41;4.75;;;2.38;;
77055;SDS011;67471;44.918;8.614;2024-03-06T16:58:46;4.35;;;2.40;;
77055;SDS011;67471;44.918;8.614;2024-03-06T17:01:50;8.68;;;5.72;;
77055;SDS011;67471;44.918;8.614;2024-03-06T17:04:54;7.90;;;4.70;;
77055;SDS011;67471;44.918;8.614;2024-03-06T17:07:58;10.63;;;8.48;;
77055;SDS011;67471;44.918;8.614;2024-03-06T17:11:02;9.70;;;6.15;;
77055;SDS011;67471;44.918;8.614;2024-03-06T17:14:06;7.15;;;5.00;;
77055;SDS011;67471;44.918;8.614;2024-03-06T17:17:09;7.72;;;5.32;;
77055;SDS011;67471;44.918;8.614;2024-03-06T17:20:13;8.35;;;5.28;;
77055;SDS011;67471;44.918;8.614;2024-03-06T17:23:17;7.07;;;5.32;;
77055;SDS011;67471;44.918;8.614;2024-03-06T17:26:21;6.80;;;4.97;;
77055;SDS011;67471;44.918;8.614;2024-03-06T17:29:25;8.55;;;5.25;;
77055;SDS011;67471;44.918;8.614;2024-03-06T17:32:28;7.88;;;5.28;;
77055;SDS011;67471;44.918;8.614;2024-03-06T17:35:32;7.07;;;5.03;;
77055;SDS011;67471;44.918;8.614;2024-03-06T17:38:36;7.60;;;5.38;;
77055;SDS011;67471;44.918;8.614;2024-03-06T17:41:41;9.50;;;5.63;;
77055;SDS011;67471;44.918;8.614;2024-03-06T17:44:46;8.25;;;5.53;;
77055;SDS011;67471;44.918;8.614;2024-03-06T17:47:50;10.55;;;6.38;;
77055;SDS011;67471;44.918;8.614;2024-03-06T17:50:53;7.72;;;5.50;;
77055;SDS011;67471;44.918;8.614;2024-03-06T17:53:57;9.18;;;6.50;;
77055;SDS011;67471;44.918;8.614;2024-03-06T17:57:01;10.43;;;7.15;;
77055;SDS011;67471;44.918;8.614;2024-03-06T18:00:05;15.25;;;11.07;;
77055;SDS011;67471;44.918;8.614;2024-03-06T18:03:15;17.60;;;12.65;;
77055;SDS011;67471;44.918;8.614;2024-03-06T18:06:20;16.00;;;11.27;;
77055;SDS011;67471;44.918;8.614;2024-03-06T18:09:24;15.43;;;10.10;;
77055;SDS011;67471;44.918;8.614;2024-03-06T18:12:28;13.63;;;9.45;;
77055;SDS011;67471;44.918;8.614;2024-03-06T18:15:32;15.98;;;9.68;;
77055;SDS011;67471;44.918;8.614;2024-03-06T18:18:36;13.07;;;9.13;;
77055;SDS011;67471;44.918;8.614;2024-03-06T18:21:43;14.85;;;9.93;;
77055;SDS011;67471;44.918;8.614;2024-03-06T18:24:47;14.23;;;9.63;;
77055;SDS011;67471;44.918;8.614;2024-03-06T18:27:51;15.43;;;10.40;;
77055;SDS011;67471;44.918;8.614;2024-03-06T18:30:56;18.05;;;11.63;;
77055;SDS011;67471;44.918;8.614;2024-03-06T18:34:00;15.23;;;11.27;;
77055;SDS011;67471;44.918;8.614;2024-03-06T18:37:03;13.40;;;9.25;;